createdAt,value
2023-02-20T00:02:16.291Z,3.60
2023-02-20T00:04:48.420Z,3.60
2023-02-20T00:07:18.904Z,3.93
2023-02-20T00:09:51.180Z,4.03
2023-02-20T00:12:21.974Z,3.93
2023-02-20T00:14:53.372Z,4.10
2023-02-20T00:17:23.996Z,3.90
2023-02-20T00:19:56.042Z,4.17
2023-02-20T00:22:27.237Z,4.10
2023-02-20T00:24:57.743Z,4.07
2023-02-20T00:27:28.402Z,4.43
2023-02-20T00:29:59.031Z,4.30
2023-02-20T00:32:29.480Z,4.03
2023-02-20T00:35:01.506Z,4.40
2023-02-20T00:37:32.134Z,4.50
2023-02-20T00:40:02.577Z,4.83
2023-02-20T00:42:33.158Z,4.40
2023-02-20T00:45:04.211Z,4.90
2023-02-20T00:47:35.640Z,4.43
2023-02-20T00:50:07.748Z,4.57
2023-02-20T00:52:40.854Z,4.67
2023-02-20T00:55:13.390Z,5.07
2023-02-20T00:57:45.012Z,4.60
2023-02-20T01:00:21.310Z,4.80
2023-02-20T01:02:51.869Z,4.30
2023-02-20T01:05:22.663Z,5.17
2023-02-20T01:07:54.243Z,5.20
2023-02-20T01:10:25.047Z,4.90
2023-02-20T01:12:56.654Z,4.40
2023-02-20T01:15:27.318Z,5.28
2023-02-20T01:18:00.364Z,4.93
2023-02-20T01:20:30.853Z,5.17
2023-02-20T01:23:02.006Z,4.90
2023-02-20T01:25:32.416Z,4.97
2023-02-20T01:28:02.846Z,5.27
2023-02-20T01:30:33.410Z,4.70
2023-02-20T01:33:03.965Z,5.87
2023-02-20T01:35:34.559Z,4.80
2023-02-20T01:38:06.666Z,4.75
2023-02-20T01:40:39.741Z,5.03
2023-02-20T01:43:11.898Z,5.10
2023-02-20T01:45:43.832Z,4.97
2023-02-20T01:48:25.697Z,4.60
2023-02-20T01:50:59.837Z,4.90
2023-02-20T01:53:32.259Z,5.20
2023-02-20T01:56:05.577Z,5.87
2023-02-20T01:58:42.002Z,5.00
2023-02-20T02:01:15.810Z,5.03
2023-02-20T02:03:49.434Z,5.30
2023-02-20T02:06:20.014Z,4.70
2023-02-20T02:08:50.695Z,5.00
2023-02-20T02:11:24.228Z,4.67
2023-02-20T02:13:55.160Z,4.57
2023-02-20T02:16:46.727Z,4.90
2023-02-20T02:19:37.009Z,4.83
2023-02-20T02:22:22.514Z,5.20
2023-02-20T02:25:11.128Z,4.37
2023-02-20T02:27:51.347Z,4.83
2023-02-20T02:30:27.633Z,4.97
2023-02-20T02:33:04.403Z,5.03
2023-02-20T02:35:53.566Z,5.20
2023-02-20T02:38:37.431Z,4.63
2023-02-20T02:41:25.878Z,5.03
2023-02-20T02:44:02.596Z,5.03
2023-02-20T02:46:54.358Z,5.30
2023-02-20T02:49:33.928Z,4.90
2023-02-20T02:52:06.582Z,5.50
2023-02-20T02:54:37.257Z,5.67
2023-02-20T02:57:25.959Z,4.73
2023-02-20T03:00:00.460Z,5.53
2023-02-20T03:02:36.561Z,5.30
2023-02-20T03:05:09.516Z,6.20
2023-02-20T03:07:42.779Z,5.53
2023-02-20T03:10:18.328Z,5.83
2023-02-20T03:12:51.725Z,5.43
2023-02-20T03:15:36.566Z,5.90
2023-02-20T03:18:14.762Z,6.20
2023-02-20T03:20:48.622Z,5.87
2023-02-20T03:23:29.805Z,6.33
2023-02-20T03:26:09.017Z,6.10
2023-02-20T03:28:42.402Z,5.70
2023-02-20T03:31:22.078Z,6.17
2023-02-20T03:34:16.808Z,5.97
2023-02-20T03:37:26.596Z,5.73
2023-02-20T03:40:19.310Z,6.03
2023-02-20T03:43:10.579Z,6.10
2023-02-20T03:45:45.310Z,5.30
2023-02-20T03:48:35.658Z,5.90
2023-02-20T03:51:06.665Z,5.50
2023-02-20T03:53:37.921Z,5.73
2023-02-20T03:56:11.674Z,5.77
2023-02-20T03:58:45.822Z,5.73
2023-02-20T04:01:18.433Z,6.07
2023-02-20T04:03:51.409Z,6.33
2023-02-20T04:06:23.698Z,6.20
2023-02-20T04:09:03.906Z,6.53
2023-02-20T04:11:35.059Z,6.00
2023-02-20T04:14:06.724Z,6.50
2023-02-20T04:16:43.340Z,6.40
2023-02-20T04:19:13.733Z,6.47
2023-02-20T04:21:52.891Z,7.00
2023-02-20T04:24:32.547Z,6.60
2023-02-20T04:27:03.862Z,6.63
2023-02-20T04:29:35.860Z,6.87
2023-02-20T04:32:06.611Z,6.43
2023-02-20T04:34:37.836Z,6.90
2023-02-20T04:37:13.646Z,6.30
2023-02-20T04:39:45.153Z,6.83
2023-02-20T04:42:15.761Z,6.15
2023-02-20T04:44:46.384Z,6.37
2023-02-20T04:47:18.842Z,6.77
2023-02-20T04:49:49.800Z,6.55
2023-02-20T04:52:20.582Z,6.83
2023-02-20T04:54:51.476Z,7.03
2023-02-20T04:57:22.494Z,6.80
2023-02-20T04:59:53.033Z,7.00
2023-02-20T05:02:27.193Z,6.87
2023-02-20T05:04:57.993Z,6.62
2023-02-20T05:07:32.344Z,6.53
2023-02-20T05:10:02.874Z,7.40
2023-02-20T05:12:36.443Z,6.50
2023-02-20T05:15:07.591Z,7.12
2023-02-20T05:17:42.113Z,7.30
2023-02-20T05:20:14.828Z,6.90
2023-02-20T05:22:47.838Z,6.87
2023-02-20T05:25:19.437Z,6.90
2023-02-20T05:27:50.321Z,7.87
2023-02-20T05:30:22.500Z,6.53
2023-02-20T05:32:53.376Z,7.17
2023-02-20T05:35:24.091Z,7.33
2023-02-20T05:37:56.325Z,7.53
2023-02-20T05:40:26.647Z,7.60
2023-02-20T05:42:57.269Z,7.67
2023-02-20T05:45:30.525Z,7.37
2023-02-20T05:48:03.894Z,8.30
2023-02-20T05:50:34.277Z,8.13
2023-02-20T05:53:05.059Z,7.60
2023-02-20T05:55:35.610Z,7.53
2023-02-20T05:58:06.099Z,6.90
2023-02-20T06:00:36.577Z,8.30
2023-02-20T06:03:13.001Z,7.47
2023-02-20T06:05:43.500Z,7.27
2023-02-20T06:08:14.215Z,7.65
2023-02-20T06:10:44.756Z,7.37
2023-02-20T06:13:15.183Z,7.20
2023-02-20T06:15:45.827Z,7.30
2023-02-20T06:18:16.568Z,7.13
2023-02-20T06:20:46.986Z,7.47
2023-02-20T06:23:17.523Z,6.92
2023-02-20T06:25:49.344Z,7.80
2023-02-20T06:28:21.511Z,7.70
2023-02-20T06:30:52.044Z,7.78
2023-02-20T06:33:22.654Z,8.18
2023-02-20T06:35:53.207Z,8.00
2023-02-20T06:38:24.055Z,8.48
2023-02-20T06:40:54.854Z,8.03
2023-02-20T06:43:25.409Z,8.50
2023-02-20T06:45:55.842Z,8.10
2023-02-20T06:48:26.251Z,8.28
2023-02-20T06:50:58.226Z,8.60
2023-02-20T06:53:30.777Z,9.83
2023-02-20T06:56:02.329Z,10.20
2023-02-20T06:58:32.717Z,9.20
2023-02-20T07:01:03.311Z,9.60
2023-02-20T07:03:33.892Z,9.53
2023-02-20T07:06:04.572Z,11.15
2023-02-20T07:08:34.996Z,9.97
2023-02-20T07:11:05.792Z,10.35
2023-02-20T07:13:36.229Z,9.60
2023-02-20T07:16:07.603Z,9.95
2023-02-20T07:18:38.656Z,10.23
2023-02-20T07:21:09.862Z,10.33
2023-02-20T07:23:41.996Z,10.70
2023-02-20T07:26:24.190Z,11.15
2023-02-20T07:28:55.633Z,10.00
2023-02-20T07:31:26.600Z,9.37
2023-02-20T07:33:58.338Z,10.18
2023-02-20T07:36:29.864Z,10.70
2023-02-20T07:39:02.210Z,9.70
2023-02-20T07:41:35.003Z,10.27
2023-02-20T07:44:08.608Z,9.73
2023-02-20T07:46:39.285Z,9.60
2023-02-20T07:49:09.735Z,10.57
2023-02-20T07:51:40.302Z,9.17
2023-02-20T07:54:10.784Z,8.60
2023-02-20T07:56:42.920Z,8.50
2023-02-20T07:59:13.447Z,8.98
2023-02-20T08:01:47.919Z,9.25
2023-02-20T08:04:18.659Z,8.80
2023-02-20T08:06:49.586Z,8.38
2023-02-20T08:09:20.341Z,8.40
2023-02-20T08:11:50.823Z,7.97
2023-02-20T08:14:21.376Z,7.55
2023-02-20T08:16:52.090Z,8.50
2023-02-20T08:19:22.718Z,8.15
2023-02-20T08:21:53.188Z,7.95
2023-02-20T08:24:23.760Z,8.45
2023-02-20T08:26:54.100Z,8.63
2023-02-20T08:29:24.536Z,7.80
2023-02-20T08:31:55.068Z,7.72
2023-02-20T08:34:25.798Z,7.30
2023-02-20T08:36:56.285Z,7.53
2023-02-20T08:39:27.107Z,7.58
2023-02-20T08:41:57.508Z,7.47
2023-02-20T08:44:29.568Z,7.92
2023-02-20T08:47:01.680Z,6.75
2023-02-20T08:49:32.267Z,7.35
2023-02-20T08:52:04.294Z,7.40
2023-02-20T08:54:34.827Z,7.30
2023-02-20T08:57:05.361Z,7.17
2023-02-20T08:59:37.452Z,7.12
2023-02-20T09:02:09.363Z,7.03
2023-02-20T09:04:39.869Z,6.65
2023-02-20T09:07:10.523Z,7.15
2023-02-20T09:09:41.586Z,6.37
2023-02-20T09:12:12.559Z,6.92
2023-02-20T09:14:43.268Z,6.35
2023-02-20T09:17:14.034Z,5.97
2023-02-20T09:19:44.758Z,6.08
2023-02-20T09:22:16.492Z,5.67
2023-02-20T09:24:48.557Z,6.50
2023-02-20T09:27:19.082Z,6.22
2023-02-20T09:29:49.663Z,5.85
2023-02-20T09:32:20.354Z,6.30
2023-02-20T09:34:50.834Z,6.28
2023-02-20T09:37:22.351Z,5.30
2023-02-20T09:39:53.056Z,5.95
2023-02-20T09:42:48.787Z,5.70
2023-02-20T09:45:29.221Z,5.80
2023-02-20T09:48:12.041Z,5.78
2023-02-20T09:50:54.303Z,5.28
2023-02-20T09:53:52.185Z,5.40
2023-02-20T09:56:25.116Z,5.08
2023-02-20T09:59:07.471Z,5.45
2023-02-20T10:01:43.737Z,5.47
2023-02-20T10:04:18.708Z,5.70
2023-02-20T10:06:52.400Z,5.28
2023-02-20T10:09:22.813Z,5.05
2023-02-20T10:12:05.755Z,5.08
2023-02-20T10:14:51.082Z,5.40
2023-02-20T10:17:30.891Z,4.95
2023-02-20T10:20:07.317Z,4.67
2023-02-20T10:22:41.163Z,5.12
2023-02-20T10:25:20.653Z,4.67
2023-02-20T10:27:57.302Z,4.90
2023-02-20T10:30:35.076Z,5.30
2023-02-20T10:33:08.571Z,5.12
2023-02-20T10:35:44.979Z,4.72
2023-02-20T10:38:18.711Z,4.90
2023-02-20T10:40:53.151Z,4.87
2023-02-20T10:43:35.408Z,5.10
2023-02-20T10:46:15.273Z,5.00
2023-02-20T10:48:47.907Z,5.10
2023-02-20T10:51:27.109Z,5.45
2023-02-20T10:54:00.775Z,4.97
2023-02-20T10:56:36.980Z,4.95
2023-02-20T10:59:19.935Z,4.65
2023-02-20T11:01:53.569Z,4.45
2023-02-20T11:04:27.677Z,4.83
2023-02-20T11:07:04.196Z,4.75
2023-02-20T11:09:34.970Z,5.03
2023-02-20T11:12:06.010Z,4.40
2023-02-20T11:14:42.346Z,5.17
2023-02-20T11:17:20.420Z,4.65
2023-02-20T11:19:56.345Z,5.08
2023-02-20T11:22:41.648Z,4.78
2023-02-20T11:25:18.297Z,5.25
2023-02-20T11:27:51.846Z,5.05
2023-02-20T11:30:33.970Z,5.42
2023-02-20T11:33:10.615Z,5.15
2023-02-20T11:35:43.808Z,4.95
2023-02-20T11:38:20.029Z,5.17
2023-02-20T11:41:03.359Z,5.03
2023-02-20T11:43:43.525Z,4.97
2023-02-20T11:46:23.985Z,5.28
2023-02-20T11:49:10.124Z,5.25
2023-02-20T11:51:43.469Z,5.50
2023-02-20T11:54:24.562Z,6.20
2023-02-20T11:57:06.944Z,5.00
2023-02-20T11:59:52.469Z,5.20
2023-02-20T12:02:28.335Z,6.08
2023-02-20T12:05:04.910Z,6.28
2023-02-20T12:07:42.830Z,6.42
2023-02-20T12:10:28.267Z,6.47
2023-02-20T12:12:58.828Z,7.20
2023-02-20T12:15:30.437Z,7.37
2023-02-20T12:18:27.661Z,6.78
2023-02-20T12:21:13.281Z,6.67
2023-02-20T12:24:17.358Z,7.35
2023-02-20T12:26:59.584Z,6.58
2023-02-20T12:29:33.078Z,6.75
2023-02-20T12:32:25.898Z,7.28
2023-02-20T12:34:59.951Z,7.10
2023-02-20T12:37:36.612Z,7.53
2023-02-20T12:40:37.274Z,7.28
2023-02-20T12:43:30.438Z,9.10
2023-02-20T12:46:19.238Z,8.58
2023-02-20T12:49:12.497Z,8.68
2023-02-20T12:51:54.297Z,8.88
2023-02-20T12:54:33.702Z,8.98
2023-02-20T12:57:13.094Z,8.83
2023-02-20T12:59:52.363Z,8.75
2023-02-20T13:02:41.341Z,9.70
2023-02-20T13:05:06.647Z,9.60
2023-02-20T13:07:40.489Z,10.72
2023-02-20T13:10:16.826Z,10.48
2023-02-20T13:12:49.184Z,11.40
2023-02-20T13:15:43.597Z,10.85
2023-02-20T13:18:41.382Z,12.60
2023-02-20T13:21:14.920Z,11.90
2023-02-20T13:23:47.574Z,11.70
2023-02-20T13:26:41.904Z,12.60
2023-02-20T13:29:15.420Z,12.90
2023-02-20T13:31:51.779Z,11.45
2023-02-20T13:34:34.341Z,11.85
2023-02-20T13:37:06.627Z,11.80
2023-02-20T13:39:39.959Z,12.07
2023-02-20T13:42:31.348Z,11.68
2023-02-20T13:45:02.475Z,12.23
2023-02-20T13:47:38.339Z,13.30
2023-02-20T13:50:30.952Z,13.35
2023-02-20T13:53:06.279Z,12.75
2023-02-20T13:55:37.766Z,12.90
2023-02-20T13:58:16.757Z,12.15
2023-02-20T14:00:54.122Z,12.13
2023-02-20T14:03:34.607Z,12.43
2023-02-20T14:06:13.506Z,12.23
2023-02-20T14:08:56.842Z,11.35
2023-02-20T14:11:39.802Z,11.78
2023-02-20T14:14:23.207Z,11.57
2023-02-20T14:16:55.495Z,11.55
2023-02-20T14:19:29.842Z,11.45
2023-02-20T14:22:19.787Z,11.15
2023-02-20T14:25:25.257Z,10.80
2023-02-20T14:28:10.709Z,10.82
2023-02-20T14:30:42.881Z,10.43
2023-02-20T14:33:28.995Z,10.28
2023-02-20T14:36:16.252Z,10.03
2023-02-20T14:38:49.902Z,10.35
2023-02-20T14:41:23.560Z,9.70
2023-02-20T14:44:03.391Z,9.98
2023-02-20T14:46:37.931Z,9.73
2023-02-20T14:49:11.390Z,8.73
2023-02-20T14:51:42.929Z,8.73
2023-02-20T14:54:27.580Z,8.85
2023-02-20T14:56:58.547Z,8.00
2023-02-20T14:59:33.222Z,8.33
2023-02-20T15:02:06.686Z,8.10
2023-02-20T15:04:39.162Z,8.53
2023-02-20T15:07:11.344Z,7.45
2023-02-20T15:09:45.378Z,7.53
2023-02-20T15:12:27.827Z,7.85
2023-02-20T15:15:01.278Z,7.47
2023-02-20T15:17:45.245Z,7.53
2023-02-20T15:20:22.154Z,7.67
2023-02-20T15:22:54.166Z,7.55
2023-02-20T15:25:30.512Z,7.47
2023-02-20T15:28:13.612Z,7.50
2023-02-20T15:31:03.854Z,6.60
2023-02-20T15:33:46.485Z,7.12
2023-02-20T15:36:19.859Z,7.40
2023-02-20T15:38:57.900Z,7.12
2023-02-20T15:41:28.717Z,6.75
2023-02-20T15:44:00.785Z,7.65
2023-02-20T15:46:31.182Z,6.85
2023-02-20T15:49:04.919Z,6.85
2023-02-20T15:51:37.298Z,7.00
2023-02-20T15:54:10.173Z,7.65
2023-02-20T15:56:41.883Z,7.08
2023-02-20T15:59:13.234Z,7.30
2023-02-20T16:01:43.792Z,8.23
2023-02-20T16:04:18.526Z,8.63
2023-02-20T16:06:49.314Z,8.43
2023-02-20T16:09:19.853Z,8.03
2023-02-20T16:11:51.593Z,7.65
2023-02-20T16:14:22.280Z,7.97
2023-02-20T16:16:54.493Z,8.10
2023-02-20T16:19:41.728Z,8.40
2023-02-20T16:22:03.415Z,8.18
2023-02-20T16:24:37.768Z,7.95
2023-02-20T16:27:23.197Z,7.62
2023-02-20T16:29:44.721Z,8.65
2023-02-20T16:32:26.832Z,8.10
2023-02-20T16:34:59.655Z,8.03
2023-02-20T16:37:35.190Z,8.08
2023-02-20T16:40:11.861Z,7.90
2023-02-20T16:42:43.069Z,8.48
2023-02-20T16:45:17.356Z,6.97
2023-02-20T16:47:53.420Z,7.90
2023-02-20T16:50:28.796Z,8.15
2023-02-20T16:53:02.480Z,7.95
2023-02-20T16:55:36.020Z,8.05
2023-02-20T16:58:09.019Z,7.42
2023-02-20T17:00:55.148Z,7.72
2023-02-20T17:03:13.997Z,7.95
2023-02-20T17:05:45.102Z,7.30
2023-02-20T17:08:15.733Z,7.83
2023-02-20T17:10:48.182Z,8.30
2023-02-20T17:13:21.849Z,8.03
2023-02-20T17:15:53.633Z,7.83
2023-02-20T17:18:25.346Z,8.05
2023-02-20T17:20:56.024Z,7.78
2023-02-20T17:23:30.461Z,7.92
2023-02-20T17:26:03.709Z,8.05
2023-02-20T17:28:38.262Z,7.22
2023-02-20T17:31:10.614Z,7.42
2023-02-20T17:33:42.523Z,7.22
2023-02-20T17:36:13.342Z,7.53
2023-02-20T17:38:47.996Z,7.53
2023-02-20T17:41:20.947Z,7.47
2023-02-20T17:43:53.433Z,6.20
2023-02-20T17:46:25.613Z,7.45
2023-02-20T17:48:57.549Z,7.55
2023-02-20T17:51:27.888Z,7.42
2023-02-20T17:54:02.982Z,8.03
2023-02-20T17:56:43.352Z,6.65
2023-02-20T17:59:16.573Z,7.25
2023-02-20T18:01:49.850Z,6.62
2023-02-20T18:04:29.915Z,6.80
2023-02-20T18:07:00.506Z,7.30
2023-02-20T18:09:31.132Z,7.87
2023-02-20T18:12:03.245Z,7.42
2023-02-20T18:14:36.041Z,7.53
2023-02-20T18:17:10.652Z,7.42
2023-02-20T18:19:41.293Z,7.17
2023-02-20T18:22:12.495Z,7.42
2023-02-20T18:24:44.802Z,7.45
2023-02-20T18:27:15.555Z,8.18
2023-02-20T18:29:46.089Z,8.40
2023-02-20T18:32:16.593Z,8.93
2023-02-20T18:34:48.045Z,8.15
2023-02-20T18:37:18.466Z,8.50
2023-02-20T18:39:50.028Z,8.95
2023-02-20T18:42:20.890Z,9.03
2023-02-20T18:44:54.585Z,8.75
2023-02-20T18:47:26.028Z,9.90
2023-02-20T18:49:57.595Z,9.18
2023-02-20T18:52:28.094Z,9.48
2023-02-20T18:54:59.653Z,8.93
2023-02-20T18:57:31.309Z,10.28
2023-02-20T19:00:02.000Z,10.65
2023-02-20T19:02:34.753Z,10.08
2023-02-20T19:05:05.362Z,9.63
2023-02-20T19:07:35.851Z,9.98
2023-02-20T19:10:07.918Z,9.18
2023-02-20T19:12:39.504Z,9.93
2023-02-20T19:15:12.203Z,10.13
2023-02-20T19:17:45.525Z,10.10
2023-02-20T19:20:29.210Z,10.20
2023-02-20T19:23:03.373Z,10.10
2023-02-20T19:25:36.552Z,9.63
2023-02-20T19:28:09.713Z,10.15
2023-02-20T19:30:40.424Z,10.70
2023-02-20T19:33:12.490Z,9.45
2023-02-20T19:35:45.473Z,9.28
2023-02-20T19:38:16.688Z,9.85
2023-02-20T19:40:48.695Z,9.73
2023-02-20T19:43:29.098Z,9.88
2023-02-20T19:46:00.241Z,9.88
2023-02-20T19:48:33.284Z,9.80
2023-02-20T19:51:05.122Z,10.30
2023-02-20T19:53:38.684Z,9.33
2023-02-20T19:56:11.298Z,8.80
2023-02-20T19:58:42.564Z,9.63
2023-02-20T20:01:28.353Z,8.93
2023-02-20T20:04:03.709Z,8.65
2023-02-20T20:06:34.913Z,8.53
2023-02-20T20:09:13.761Z,8.83
2023-02-20T20:11:39.729Z,8.97
2023-02-20T20:14:11.311Z,8.80
2023-02-20T20:16:49.346Z,8.20
2023-02-20T20:19:22.955Z,9.08
2023-02-20T20:21:54.649Z,8.43
2023-02-20T20:24:31.192Z,8.83
2023-02-20T20:26:59.916Z,8.50
2023-02-20T20:29:30.502Z,9.03
2023-02-20T20:32:01.334Z,8.63
2023-02-20T20:34:34.023Z,8.53
2023-02-20T20:37:04.644Z,8.75
2023-02-20T20:39:37.636Z,8.18
2023-02-20T20:42:09.471Z,8.23
2023-02-20T20:44:42.357Z,8.15
2023-02-20T20:47:13.633Z,8.30
2023-02-20T20:49:44.366Z,7.78
2023-02-20T20:52:17.866Z,8.25
2023-02-20T20:54:52.979Z,8.30
2023-02-20T20:57:26.502Z,8.08
2023-02-20T21:00:01.947Z,7.78
2023-02-20T21:02:33.807Z,7.47
2023-02-20T21:05:10.135Z,8.03
2023-02-20T21:07:40.366Z,7.15
2023-02-20T21:10:11.748Z,7.20
2023-02-20T21:12:44.463Z,7.20
2023-02-20T21:15:15.721Z,8.15
2023-02-20T21:17:48.649Z,7.45
2023-02-20T21:20:23.835Z,7.75
2023-02-20T21:22:56.635Z,7.00
2023-02-20T21:25:29.922Z,7.28
2023-02-20T21:28:02.257Z,7.28
2023-02-20T21:30:34.109Z,7.42
2023-02-20T21:33:06.373Z,7.03
2023-02-20T21:35:37.063Z,7.45
2023-02-20T21:38:10.002Z,7.37
2023-02-20T21:40:43.870Z,7.08
2023-02-20T21:43:36.495Z,7.28
2023-02-20T21:46:10.354Z,7.40
2023-02-20T21:48:44.808Z,7.17
2023-02-20T21:51:20.814Z,6.85
2023-02-20T21:53:52.535Z,7.15
2023-02-20T21:56:22.991Z,6.80
2023-02-20T21:59:06.205Z,6.92
2023-02-20T22:01:38.723Z,7.17
2023-02-20T22:04:14.886Z,7.62
2023-02-20T22:06:46.276Z,7.05
2023-02-20T22:09:35.912Z,7.08
2023-02-20T22:12:24.463Z,7.35
2023-02-20T22:15:12.773Z,6.60
2023-02-20T22:18:04.743Z,7.10
2023-02-20T22:20:55.621Z,7.62
2023-02-20T22:23:44.327Z,6.87
2023-02-20T22:26:39.914Z,7.50
2023-02-20T22:29:28.232Z,6.90
2023-02-20T22:32:17.043Z,7.75
2023-02-20T22:35:11.964Z,5.78
2023-02-20T22:37:58.189Z,6.25
2023-02-20T22:40:47.072Z,6.00
2023-02-20T22:43:36.405Z,6.35
2023-02-20T22:46:26.972Z,6.83
2023-02-20T22:49:14.977Z,6.65
2023-02-20T22:52:06.078Z,6.12
2023-02-20T22:55:04.370Z,7.67
2023-02-20T22:57:47.874Z,7.25
2023-02-20T23:00:37.184Z,7.35
2023-02-20T23:03:26.064Z,7.67
2023-02-20T23:06:18.490Z,7.60
2023-02-20T23:09:06.592Z,7.87
2023-02-20T23:11:56.714Z,8.28
2023-02-20T23:14:45.437Z,7.72
2023-02-20T23:17:37.498Z,7.97
2023-02-20T23:20:28.684Z,8.20
2023-02-20T23:23:17.490Z,7.60
2023-02-20T23:26:06.662Z,7.62
2023-02-20T23:28:58.135Z,7.37
2023-02-20T23:32:01.962Z,8.05
2023-02-20T23:34:53.658Z,7.03
2023-02-20T23:37:42.206Z,7.58
2023-02-20T23:40:36.860Z,7.62
2023-02-20T23:43:22.398Z,7.20
2023-02-20T23:46:11.802Z,6.22
2023-02-20T23:49:00.127Z,7.22
2023-02-20T23:51:52.705Z,6.47
2023-02-20T23:54:41.148Z,6.62
2023-02-20T23:57:29.852Z,6.85
